sensor_id;sensor_type;location;lat;lon;timestamp;P1;durP1;ratioP1;P2;durP2;ratioP2
45059;SDS011;30799;49.060;9.312;2023-05-07T00:01:17;0.80;;;0.80;;
45059;SDS011;30799;49.060;9.312;2023-05-07T00:03:45;1.00;;;1.00;;
45059;SDS011;30799;49.060;9.312;2023-05-07T00:06:12;0.93;;;0.93;;
45059;SDS011;30799;49.060;9.312;2023-05-07T00:08:39;1.42;;;1.10;;
45059;SDS011;30799;49.060;9.312;2023-05-07T00:11:05;0.88;;;0.88;;
45059;SDS011;30799;49.060;9.312;2023-05-07T00:13:32;1.27;;;1.00;;
45059;SDS011;30799;49.060;9.312;2023-05-07T00:16:02;0.98;;;0.95;;
45059;SDS011;30799;49.060;9.312;2023-05-07T00:18:29;0.98;;;0.90;;
45059;SDS011;30799;49.060;9.312;2023-05-07T00:20:56;1.15;;;0.93;;
45059;SDS011;30799;49.060;9.312;2023-05-07T00:23:22;1.13;;;0.90;;
45059;SDS011;30799;49.060;9.312;2023-05-07T00:25:49;1.08;;;0.93;;
45059;SDS011;30799;49.060;9.312;2023-05-07T00:28:16;1.15;;;0.95;;
45059;SDS011;30799;49.060;9.312;2023-05-07T00:30:42;2.38;;;1.00;;
45059;SDS011;30799;49.060;9.312;2023-05-07T00:33:09;1.10;;;1.00;;
45059;SDS011;30799;49.060;9.312;2023-05-07T00:35:36;1.10;;;1.00;;
45059;SDS011;30799;49.060;9.312;2023-05-07T00:38:02;1.10;;;1.00;;
45059;SDS011;30799;49.060;9.312;2023-05-07T00:40:29;1.00;;;1.00;;
45059;SDS011;30799;49.060;9.312;2023-05-07T00:42:56;1.00;;;0.90;;
45059;SDS011;30799;49.060;9.312;2023-05-07T00:45:27;0.98;;;0.90;;
45059;SDS011;30799;49.060;9.312;2023-05-07T00:47:55;0.90;;;0.90;;
45059;SDS011;30799;49.060;9.312;2023-05-07T00:50:26;1.35;;;1.00;;
45059;SDS011;30799;49.060;9.312;2023-05-07T00:52:53;0.80;;;0.80;;
45059;SDS011;30799;49.060;9.312;2023-05-07T00:55:21;0.90;;;0.90;;
45059;SDS011;30799;49.060;9.312;2023-05-07T00:57:49;1.20;;;1.10;;
45059;SDS011;30799;49.060;9.312;2023-05-07T01:00:17;1.10;;;1.00;;
45059;SDS011;30799;49.060;9.312;2023-05-07T01:02:44;0.90;;;0.90;;
45059;SDS011;30799;49.060;9.312;2023-05-07T01:05:14;1.27;;;0.90;;
45059;SDS011;30799;49.060;9.312;2023-05-07T01:07:44;1.05;;;0.90;;
45059;SDS011;30799;49.060;9.312;2023-05-07T01:10:11;2.40;;;0.90;;
45059;SDS011;30799;49.060;9.312;2023-05-07T01:12:38;0.93;;;0.90;;
45059;SDS011;30799;49.060;9.312;2023-05-07T01:15:07;0.85;;;0.80;;
45059;SDS011;30799;49.060;9.312;2023-05-07T01:17:40;1.35;;;0.90;;
45059;SDS011;30799;49.060;9.312;2023-05-07T01:20:08;1.73;;;1.00;;
45059;SDS011;30799;49.060;9.312;2023-05-07T01:22:37;0.80;;;0.80;;
45059;SDS011;30799;49.060;9.312;2023-05-07T01:25:05;1.75;;;0.70;;
45059;SDS011;30799;49.060;9.312;2023-05-07T01:27:33;2.25;;;1.10;;
45059;SDS011;30799;49.060;9.312;2023-05-07T01:30:01;1.23;;;1.13;;
45059;SDS011;30799;49.060;9.312;2023-05-07T01:32:33;0.77;;;0.77;;
45059;SDS011;30799;49.060;9.312;2023-05-07T01:35:27;1.77;;;0.90;;
45059;SDS011;30799;49.060;9.312;2023-05-07T01:37:58;1.10;;;0.95;;
45059;SDS011;30799;49.060;9.312;2023-05-07T01:40:25;1.00;;;0.90;;
45059;SDS011;30799;49.060;9.312;2023-05-07T01:42:53;0.90;;;0.90;;
45059;SDS011;30799;49.060;9.312;2023-05-07T01:45:20;1.00;;;1.00;;
45059;SDS011;30799;49.060;9.312;2023-05-07T01:47:47;0.88;;;0.88;;
45059;SDS011;30799;49.060;9.312;2023-05-07T01:50:15;1.55;;;0.80;;
45059;SDS011;30799;49.060;9.312;2023-05-07T01:52:44;1.80;;;1.00;;
45059;SDS011;30799;49.060;9.312;2023-05-07T01:55:11;2.75;;;0.95;;
45059;SDS011;30799;49.060;9.312;2023-05-07T01:57:37;0.90;;;0.90;;
45059;SDS011;30799;49.060;9.312;2023-05-07T02:00:04;1.00;;;0.90;;
45059;SDS011;30799;49.060;9.312;2023-05-07T02:02:31;0.90;;;0.90;;
45059;SDS011;30799;49.060;9.312;2023-05-07T02:04:59;1.05;;;1.00;;
45059;SDS011;30799;49.060;9.312;2023-05-07T02:07:27;1.40;;;0.73;;
45059;SDS011;30799;49.060;9.312;2023-05-07T02:09:54;1.20;;;0.95;;
45059;SDS011;30799;49.060;9.312;2023-05-07T02:12:21;0.73;;;0.73;;
45059;SDS011;30799;49.060;9.312;2023-05-07T02:14:49;1.35;;;0.90;;
45059;SDS011;30799;49.060;9.312;2023-05-07T02:17:15;1.00;;;0.98;;
45059;SDS011;30799;49.060;9.312;2023-05-07T02:19:42;0.85;;;0.80;;
45059;SDS011;30799;49.060;9.312;2023-05-07T02:22:09;1.38;;;1.20;;
45059;SDS011;30799;49.060;9.312;2023-05-07T02:24:36;0.80;;;0.75;;
45059;SDS011;30799;49.060;9.312;2023-05-07T02:27:03;0.93;;;0.93;;
45059;SDS011;30799;49.060;9.312;2023-05-07T02:29:29;0.98;;;0.90;;
45059;SDS011;30799;49.060;9.312;2023-05-07T02:31:56;4.68;;;1.00;;
45059;SDS011;30799;49.060;9.312;2023-05-07T02:34:23;1.02;;;0.90;;
45059;SDS011;30799;49.060;9.312;2023-05-07T02:36:49;1.02;;;1.00;;
45059;SDS011;30799;49.060;9.312;2023-05-07T02:39:16;0.70;;;0.70;;
45059;SDS011;30799;49.060;9.312;2023-05-07T02:41:43;0.77;;;0.73;;
45059;SDS011;30799;49.060;9.312;2023-05-07T02:44:09;1.10;;;1.00;;
45059;SDS011;30799;49.060;9.312;2023-05-07T02:46:36;0.90;;;0.90;;
45059;SDS011;30799;49.060;9.312;2023-05-07T02:49:02;1.15;;;0.85;;
45059;SDS011;30799;49.060;9.312;2023-05-07T02:51:29;1.00;;;0.90;;
45059;SDS011;30799;49.060;9.312;2023-05-07T02:53:56;0.82;;;0.82;;
45059;SDS011;30799;49.060;9.312;2023-05-07T02:56:25;1.20;;;1.05;;
45059;SDS011;30799;49.060;9.312;2023-05-07T02:58:52;0.80;;;0.80;;
45059;SDS011;30799;49.060;9.312;2023-05-07T03:01:19;2.25;;;0.90;;
45059;SDS011;30799;49.060;9.312;2023-05-07T03:03:47;1.83;;;1.00;;
45059;SDS011;30799;49.060;9.312;2023-05-07T03:06:13;0.88;;;0.88;;
45059;SDS011;30799;49.060;9.312;2023-05-07T03:08:40;0.80;;;0.80;;
45059;SDS011;30799;49.060;9.312;2023-05-07T03:11:07;1.05;;;0.80;;
45059;SDS011;30799;49.060;9.312;2023-05-07T03:13:33;1.67;;;1.08;;
45059;SDS011;30799;49.060;9.312;2023-05-07T03:16:00;2.53;;;0.95;;
45059;SDS011;30799;49.060;9.312;2023-05-07T03:18:27;2.05;;;0.90;;
45059;SDS011;30799;49.060;9.312;2023-05-07T03:20:53;0.95;;;0.93;;
45059;SDS011;30799;49.060;9.312;2023-05-07T03:23:20;0.85;;;0.85;;
45059;SDS011;30799;49.060;9.312;2023-05-07T03:25:49;0.70;;;0.70;;
45059;SDS011;30799;49.060;9.312;2023-05-07T03:28:16;1.92;;;0.90;;
45059;SDS011;30799;49.060;9.312;2023-05-07T03:30:43;0.82;;;0.80;;
45059;SDS011;30799;49.060;9.312;2023-05-07T03:33:09;0.80;;;0.80;;
45059;SDS011;30799;49.060;9.312;2023-05-07T03:35:36;1.05;;;0.90;;
45059;SDS011;30799;49.060;9.312;2023-05-07T03:38:02;1.00;;;1.00;;
45059;SDS011;30799;49.060;9.312;2023-05-07T03:40:29;0.80;;;0.80;;
45059;SDS011;30799;49.060;9.312;2023-05-07T03:42:56;0.85;;;0.85;;
45059;SDS011;30799;49.060;9.312;2023-05-07T03:45:22;0.95;;;0.95;;
45059;SDS011;30799;49.060;9.312;2023-05-07T03:47:49;1.00;;;0.80;;
45059;SDS011;30799;49.060;9.312;2023-05-07T03:50:16;1.00;;;0.90;;
45059;SDS011;30799;49.060;9.312;2023-05-07T03:52:42;1.33;;;0.90;;
45059;SDS011;30799;49.060;9.312;2023-05-07T03:55:09;0.90;;;0.90;;
45059;SDS011;30799;49.060;9.312;2023-05-07T03:57:35;1.17;;;1.02;;
45059;SDS011;30799;49.060;9.312;2023-05-07T04:00:02;0.80;;;0.80;;
45059;SDS011;30799;49.060;9.312;2023-05-07T04:02:30;0.90;;;0.90;;
45059;SDS011;30799;49.060;9.312;2023-05-07T04:04:57;0.90;;;0.90;;
45059;SDS011;30799;49.060;9.312;2023-05-07T04:07:23;1.00;;;0.93;;
45059;SDS011;30799;49.060;9.312;2023-05-07T04:09:50;0.80;;;0.80;;
45059;SDS011;30799;49.060;9.312;2023-05-07T04:12:17;0.80;;;0.80;;
45059;SDS011;30799;49.060;9.312;2023-05-07T04:14:44;1.00;;;0.82;;
45059;SDS011;30799;49.060;9.312;2023-05-07T04:17:11;0.88;;;0.70;;
45059;SDS011;30799;49.060;9.312;2023-05-07T04:19:37;0.80;;;0.80;;
45059;SDS011;30799;49.060;9.312;2023-05-07T04:22:04;1.10;;;0.95;;
45059;SDS011;30799;49.060;9.312;2023-05-07T04:24:31;0.90;;;0.90;;
45059;SDS011;30799;49.060;9.312;2023-05-07T04:26:59;0.82;;;0.75;;
45059;SDS011;30799;49.060;9.312;2023-05-07T04:29:25;1.05;;;1.00;;
45059;SDS011;30799;49.060;9.312;2023-05-07T04:31:52;0.80;;;0.80;;
45059;SDS011;30799;49.060;9.312;2023-05-07T04:34:18;0.80;;;0.80;;
45059;SDS011;30799;49.060;9.312;2023-05-07T04:36:47;1.15;;;1.00;;
45059;SDS011;30799;49.060;9.312;2023-05-07T04:39:14;2.17;;;1.65;;
45059;SDS011;30799;49.060;9.312;2023-05-07T04:41:41;2.92;;;2.17;;
45059;SDS011;30799;49.060;9.312;2023-05-07T04:44:07;7.20;;;1.92;;
45059;SDS011;30799;49.060;9.312;2023-05-07T04:46:35;3.83;;;1.67;;
45059;SDS011;30799;49.060;9.312;2023-05-07T04:49:02;2.08;;;1.50;;
45059;SDS011;30799;49.060;9.312;2023-05-07T04:51:29;3.80;;;1.40;;
45059;SDS011;30799;49.060;9.312;2023-05-07T04:53:56;3.05;;;1.50;;
45059;SDS011;30799;49.060;9.312;2023-05-07T04:56:23;2.63;;;1.50;;
45059;SDS011;30799;49.060;9.312;2023-05-07T04:58:49;4.85;;;1.42;;
45059;SDS011;30799;49.060;9.312;2023-05-07T05:01:16;3.78;;;1.20;;
45059;SDS011;30799;49.060;9.312;2023-05-07T05:03:42;2.97;;;1.25;;
45059;SDS011;30799;49.060;9.312;2023-05-07T05:06:09;2.00;;;1.42;;
45059;SDS011;30799;49.060;9.312;2023-05-07T05:08:36;1.80;;;1.50;;
45059;SDS011;30799;49.060;9.312;2023-05-07T05:11:03;3.70;;;1.05;;
45059;SDS011;30799;49.060;9.312;2023-05-07T05:13:29;1.67;;;1.40;;
45059;SDS011;30799;49.060;9.312;2023-05-07T05:15:56;4.90;;;1.50;;
45059;SDS011;30799;49.060;9.312;2023-05-07T05:18:23;1.50;;;1.10;;
45059;SDS011;30799;49.060;9.312;2023-05-07T05:20:51;1.73;;;1.17;;
45059;SDS011;30799;49.060;9.312;2023-05-07T05:23:17;2.03;;;1.15;;
45059;SDS011;30799;49.060;9.312;2023-05-07T05:25:44;3.05;;;1.20;;
45059;SDS011;30799;49.060;9.312;2023-05-07T05:28:11;2.88;;;1.10;;
45059;SDS011;30799;49.060;9.312;2023-05-07T05:30:38;1.42;;;1.17;;
45059;SDS011;30799;49.060;9.312;2023-05-07T05:33:05;2.33;;;1.30;;
45059;SDS011;30799;49.060;9.312;2023-05-07T05:35:32;2.70;;;1.23;;
45059;SDS011;30799;49.060;9.312;2023-05-07T05:37:58;1.20;;;1.10;;
45059;SDS011;30799;49.060;9.312;2023-05-07T05:40:25;1.85;;;1.20;;
45059;SDS011;30799;49.060;9.312;2023-05-07T05:42:51;3.17;;;1.33;;
45059;SDS011;30799;49.060;9.312;2023-05-07T05:45:18;2.13;;;1.30;;
45059;SDS011;30799;49.060;9.312;2023-05-07T05:47:45;1.48;;;1.38;;
45059;SDS011;30799;49.060;9.312;2023-05-07T05:50:11;8.15;;;5.10;;
45059;SDS011;30799;49.060;9.312;2023-05-07T05:52:38;9.95;;;7.00;;
45059;SDS011;30799;49.060;9.312;2023-05-07T05:55:06;10.35;;;5.25;;
45059;SDS011;30799;49.060;9.312;2023-05-07T05:57:33;8.07;;;4.35;;
45059;SDS011;30799;49.060;9.312;2023-05-07T06:00:01;6.70;;;3.30;;
45059;SDS011;30799;49.060;9.312;2023-05-07T06:02:28;6.10;;;3.10;;
45059;SDS011;30799;49.060;9.312;2023-05-07T06:04:55;3.17;;;2.70;;
45059;SDS011;30799;49.060;9.312;2023-05-07T06:07:22;5.78;;;3.13;;
45059;SDS011;30799;49.060;9.312;2023-05-07T06:09:48;4.32;;;2.92;;
45059;SDS011;30799;49.060;9.312;2023-05-07T06:12:15;5.80;;;2.88;;
45059;SDS011;30799;49.060;9.312;2023-05-07T06:14:45;4.53;;;2.85;;
45059;SDS011;30799;49.060;9.312;2023-05-07T06:17:11;5.45;;;3.88;;
45059;SDS011;30799;49.060;9.312;2023-05-07T06:19:38;4.53;;;3.22;;
45059;SDS011;30799;49.060;9.312;2023-05-07T06:22:04;4.15;;;2.97;;
45059;SDS011;30799;49.060;9.312;2023-05-07T06:24:31;5.85;;;3.05;;
45059;SDS011;30799;49.060;9.312;2023-05-07T06:26:58;5.25;;;3.20;;
45059;SDS011;30799;49.060;9.312;2023-05-07T06:29:24;4.07;;;2.97;;
45059;SDS011;30799;49.060;9.312;2023-05-07T06:31:56;5.72;;;2.85;;
45059;SDS011;30799;49.060;9.312;2023-05-07T06:34:23;5.63;;;2.92;;
45059;SDS011;30799;49.060;9.312;2023-05-07T06:36:49;6.63;;;3.42;;
45059;SDS011;30799;49.060;9.312;2023-05-07T06:39:16;8.68;;;3.25;;
45059;SDS011;30799;49.060;9.312;2023-05-07T06:41:43;4.53;;;3.03;;
45059;SDS011;30799;49.060;9.312;2023-05-07T06:44:09;6.60;;;3.10;;
45059;SDS011;30799;49.060;9.312;2023-05-07T06:46:36;4.72;;;2.90;;
45059;SDS011;30799;49.060;9.312;2023-05-07T06:49:03;3.00;;;2.67;;
45059;SDS011;30799;49.060;9.312;2023-05-07T06:51:29;3.65;;;3.00;;
45059;SDS011;30799;49.060;9.312;2023-05-07T06:53:56;3.08;;;2.50;;
45059;SDS011;30799;49.060;9.312;2023-05-07T06:56:23;3.22;;;2.50;;
45059;SDS011;30799;49.060;9.312;2023-05-07T06:58:50;2.78;;;2.35;;
45059;SDS011;30799;49.060;9.312;2023-05-07T07:01:17;3.78;;;2.83;;
45059;SDS011;30799;49.060;9.312;2023-05-07T07:03:43;3.67;;;2.60;;
45059;SDS011;30799;49.060;9.312;2023-05-07T07:06:10;5.88;;;2.85;;
45059;SDS011;30799;49.060;9.312;2023-05-07T07:08:37;4.63;;;2.63;;
45059;SDS011;30799;49.060;9.312;2023-05-07T07:11:05;5.50;;;2.50;;
45059;SDS011;30799;49.060;9.312;2023-05-07T07:13:32;7.35;;;2.67;;
45059;SDS011;30799;49.060;9.312;2023-05-07T07:15:59;2.53;;;2.08;;
45059;SDS011;30799;49.060;9.312;2023-05-07T07:18:26;3.50;;;1.90;;
45059;SDS011;30799;49.060;9.312;2023-05-07T07:20:52;5.15;;;2.00;;
45059;SDS011;30799;49.060;9.312;2023-05-07T07:23:19;4.22;;;1.95;;
45059;SDS011;30799;49.060;9.312;2023-05-07T07:25:46;3.55;;;1.98;;
45059;SDS011;30799;49.060;9.312;2023-05-07T07:28:13;3.13;;;1.80;;
45059;SDS011;30799;49.060;9.312;2023-05-07T07:30:39;2.47;;;1.90;;
45059;SDS011;30799;49.060;9.312;2023-05-07T07:33:06;3.55;;;1.98;;
45059;SDS011;30799;49.060;9.312;2023-05-07T07:35:33;3.58;;;2.00;;
45059;SDS011;30799;49.060;9.312;2023-05-07T07:37:59;4.93;;;1.90;;
45059;SDS011;30799;49.060;9.312;2023-05-07T07:40:27;3.33;;;2.00;;
45059;SDS011;30799;49.060;9.312;2023-05-07T07:42:54;5.65;;;2.15;;
45059;SDS011;30799;49.060;9.312;2023-05-07T07:45:20;2.20;;;2.00;;
45059;SDS011;30799;49.060;9.312;2023-05-07T07:47:47;4.65;;;1.63;;
45059;SDS011;30799;49.060;9.312;2023-05-07T07:50:14;3.08;;;2.30;;
45059;SDS011;30799;49.060;9.312;2023-05-07T07:52:57;5.50;;;1.92;;
45059;SDS011;30799;49.060;9.312;2023-05-07T07:55:23;3.58;;;2.03;;
45059;SDS011;30799;49.060;9.312;2023-05-07T07:57:50;3.53;;;2.30;;
45059;SDS011;30799;49.060;9.312;2023-05-07T08:00:17;3.40;;;2.38;;
45059;SDS011;30799;49.060;9.312;2023-05-07T08:02:43;3.05;;;1.90;;
45059;SDS011;30799;49.060;9.312;2023-05-07T08:05:11;2.50;;;2.00;;
45059;SDS011;30799;49.060;9.312;2023-05-07T08:07:37;3.40;;;1.92;;
45059;SDS011;30799;49.060;9.312;2023-05-07T08:10:04;2.20;;;1.98;;
45059;SDS011;30799;49.060;9.312;2023-05-07T08:12:31;5.05;;;2.03;;
45059;SDS011;30799;49.060;9.312;2023-05-07T08:14:57;3.67;;;1.80;;
45059;SDS011;30799;49.060;9.312;2023-05-07T08:17:24;2.47;;;1.90;;
45059;SDS011;30799;49.060;9.312;2023-05-07T08:19:51;5.80;;;1.85;;
45059;SDS011;30799;49.060;9.312;2023-05-07T08:22:17;4.32;;;1.85;;
45059;SDS011;30799;49.060;9.312;2023-05-07T08:24:44;4.47;;;2.03;;
45059;SDS011;30799;49.060;9.312;2023-05-07T08:27:11;4.85;;;2.05;;
45059;SDS011;30799;49.060;9.312;2023-05-07T08:29:37;7.43;;;2.58;;
45059;SDS011;30799;49.060;9.312;2023-05-07T08:32:04;6.13;;;2.40;;
45059;SDS011;30799;49.060;9.312;2023-05-07T08:34:31;5.60;;;2.20;;
45059;SDS011;30799;49.060;9.312;2023-05-07T08:36:57;6.78;;;2.25;;
45059;SDS011;30799;49.060;9.312;2023-05-07T08:39:24;5.68;;;1.98;;
45059;SDS011;30799;49.060;9.312;2023-05-07T08:41:51;4.32;;;1.88;;
45059;SDS011;30799;49.060;9.312;2023-05-07T08:44:25;7.18;;;2.20;;
45059;SDS011;30799;49.060;9.312;2023-05-07T08:46:54;5.18;;;2.10;;
45059;SDS011;30799;49.060;9.312;2023-05-07T08:49:22;7.72;;;2.20;;
45059;SDS011;30799;49.060;9.312;2023-05-07T08:51:49;5.25;;;2.20;;
45059;SDS011;30799;49.060;9.312;2023-05-07T08:54:16;5.28;;;1.88;;
45059;SDS011;30799;49.060;9.312;2023-05-07T08:56:43;5.40;;;2.10;;
45059;SDS011;30799;49.060;9.312;2023-05-07T08:59:10;3.00;;;1.70;;
45059;SDS011;30799;49.060;9.312;2023-05-07T09:01:37;5.20;;;1.90;;
45059;SDS011;30799;49.060;9.312;2023-05-07T09:04:04;2.95;;;1.80;;
45059;SDS011;30799;49.060;9.312;2023-05-07T09:06:33;2.55;;;1.83;;
45059;SDS011;30799;49.060;9.312;2023-05-07T09:09:00;3.60;;;1.90;;
45059;SDS011;30799;49.060;9.312;2023-05-07T09:11:27;3.83;;;1.90;;
45059;SDS011;30799;49.060;9.312;2023-05-07T09:13:54;7.22;;;2.78;;
45059;SDS011;30799;49.060;9.312;2023-05-07T09:16:22;3.35;;;1.85;;
45059;SDS011;30799;49.060;9.312;2023-05-07T09:18:53;4.15;;;1.92;;
45059;SDS011;30799;49.060;9.312;2023-05-07T09:21:21;5.75;;;1.90;;
45059;SDS011;30799;49.060;9.312;2023-05-07T09:23:52;5.03;;;2.08;;
45059;SDS011;30799;49.060;9.312;2023-05-07T09:26:23;4.45;;;1.77;;
45059;SDS011;30799;49.060;9.312;2023-05-07T09:28:51;2.90;;;2.13;;
45059;SDS011;30799;49.060;9.312;2023-05-07T09:31:18;5.15;;;2.30;;
45059;SDS011;30799;49.060;9.312;2023-05-07T09:33:46;4.35;;;2.00;;
45059;SDS011;30799;49.060;9.312;2023-05-07T09:36:13;2.58;;;2.00;;
45059;SDS011;30799;49.060;9.312;2023-05-07T09:38:40;4.03;;;2.15;;
45059;SDS011;30799;49.060;9.312;2023-05-07T09:41:08;4.30;;;2.10;;
45059;SDS011;30799;49.060;9.312;2023-05-07T09:43:36;4.63;;;1.98;;
45059;SDS011;30799;49.060;9.312;2023-05-07T09:48:41;5.68;;;2.40;;
45059;SDS011;30799;49.060;9.312;2023-05-07T09:51:18;4.13;;;2.45;;
45059;SDS011;30799;49.060;9.312;2023-05-07T09:53:52;8.38;;;2.80;;
45059;SDS011;30799;49.060;9.312;2023-05-07T09:56:19;11.13;;;3.17;;
45059;SDS011;30799;49.060;9.312;2023-05-07T09:58:47;7.75;;;3.13;;
45059;SDS011;30799;49.060;9.312;2023-05-07T10:01:15;9.35;;;2.97;;
45059;SDS011;30799;49.060;9.312;2023-05-07T10:03:45;7.03;;;2.88;;
45059;SDS011;30799;49.060;9.312;2023-05-07T10:06:12;3.95;;;2.70;;
45059;SDS011;30799;49.060;9.312;2023-05-07T10:08:40;5.82;;;2.70;;
45059;SDS011;30799;49.060;9.312;2023-05-07T10:11:09;7.90;;;2.97;;
45059;SDS011;30799;49.060;9.312;2023-05-07T10:13:36;8.25;;;2.60;;
45059;SDS011;30799;49.060;9.312;2023-05-07T10:16:04;5.07;;;2.83;;
45059;SDS011;30799;49.060;9.312;2023-05-07T10:18:31;6.30;;;2.72;;
45059;SDS011;30799;49.060;9.312;2023-05-07T10:21:04;6.15;;;2.70;;
45059;SDS011;30799;49.060;9.312;2023-05-07T10:23:34;5.72;;;2.65;;
45059;SDS011;30799;49.060;9.312;2023-05-07T10:26:02;6.15;;;2.47;;
45059;SDS011;30799;49.060;9.312;2023-05-07T10:28:32;5.93;;;2.80;;
45059;SDS011;30799;49.060;9.312;2023-05-07T10:31:15;9.98;;;3.38;;
45059;SDS011;30799;49.060;9.312;2023-05-07T10:33:45;16.35;;;6.53;;
45059;SDS011;30799;49.060;9.312;2023-05-07T10:36:13;10.27;;;5.93;;
45059;SDS011;30799;49.060;9.312;2023-05-07T10:38:40;20.85;;;7.75;;
45059;SDS011;30799;49.060;9.312;2023-05-07T10:41:06;19.92;;;8.68;;
45059;SDS011;30799;49.060;9.312;2023-05-07T10:43:44;29.55;;;9.82;;
45059;SDS011;30799;49.060;9.312;2023-05-07T10:51:27;23.00;;;10.98;;
45059;SDS011;30799;49.060;9.312;2023-05-07T10:54:18;28.63;;;12.50;;
45059;SDS011;30799;49.060;9.312;2023-05-07T10:56:41;28.48;;;13.00;;
45059;SDS011;30799;49.060;9.312;2023-05-07T11:01:54;26.30;;;11.73;;
45059;SDS011;30799;49.060;9.312;2023-05-07T11:04:32;27.75;;;11.75;;
45059;SDS011;30799;49.060;9.312;2023-05-07T11:15:04;26.98;;;12.15;;
45059;SDS011;30799;49.060;9.312;2023-05-07T11:17:54;23.80;;;11.60;;
45059;SDS011;30799;49.060;9.312;2023-05-07T11:26:04;20.98;;;10.88;;
45059;SDS011;30799;49.060;9.312;2023-05-07T11:28:36;23.92;;;11.50;;
45059;SDS011;30799;49.060;9.312;2023-05-07T11:31:07;23.48;;;11.45;;
45059;SDS011;30799;49.060;9.312;2023-05-07T11:33:34;22.77;;;11.63;;
45059;SDS011;30799;49.060;9.312;2023-05-07T11:36:02;22.60;;;11.50;;
45059;SDS011;30799;49.060;9.312;2023-05-07T11:38:30;22.70;;;10.95;;
45059;SDS011;30799;49.060;9.312;2023-05-07T11:41:02;26.00;;;11.52;;
45059;SDS011;30799;49.060;9.312;2023-05-07T11:43:31;21.55;;;11.18;;
45059;SDS011;30799;49.060;9.312;2023-05-07T11:46:08;23.73;;;11.18;;
45059;SDS011;30799;49.060;9.312;2023-05-07T11:48:36;21.85;;;11.23;;
45059;SDS011;30799;49.060;9.312;2023-05-07T11:51:04;23.42;;;11.75;;
45059;SDS011;30799;49.060;9.312;2023-05-07T11:53:36;17.92;;;10.25;;
45059;SDS011;30799;49.060;9.312;2023-05-07T11:56:08;21.17;;;11.25;;
45059;SDS011;30799;49.060;9.312;2023-05-07T11:58:36;19.55;;;10.32;;
45059;SDS011;30799;49.060;9.312;2023-05-07T12:01:03;21.05;;;10.65;;
45059;SDS011;30799;49.060;9.312;2023-05-07T12:03:30;19.70;;;10.52;;
45059;SDS011;30799;49.060;9.312;2023-05-07T12:06:01;20.30;;;10.03;;
45059;SDS011;30799;49.060;9.312;2023-05-07T12:08:27;18.73;;;10.65;;
45059;SDS011;30799;49.060;9.312;2023-05-07T12:10:54;23.30;;;9.82;;
45059;SDS011;30799;49.060;9.312;2023-05-07T12:13:21;19.42;;;9.20;;
45059;SDS011;30799;49.060;9.312;2023-05-07T12:15:53;19.88;;;8.52;;
45059;SDS011;30799;49.060;9.312;2023-05-07T12:18:22;18.65;;;9.55;;
45059;SDS011;30799;49.060;9.312;2023-05-07T12:20:49;18.90;;;9.95;;
45059;SDS011;30799;49.060;9.312;2023-05-07T12:23:17;19.10;;;10.40;;
45059;SDS011;30799;49.060;9.312;2023-05-07T12:25:46;14.20;;;9.13;;
45059;SDS011;30799;49.060;9.312;2023-05-07T12:28:14;16.85;;;9.95;;
45059;SDS011;30799;49.060;9.312;2023-05-07T12:30:42;17.63;;;9.23;;
45059;SDS011;30799;49.060;9.312;2023-05-07T12:33:10;16.05;;;9.20;;
45059;SDS011;30799;49.060;9.312;2023-05-07T12:35:39;15.38;;;8.63;;
45059;SDS011;30799;49.060;9.312;2023-05-07T12:38:13;16.75;;;9.25;;
45059;SDS011;30799;49.060;9.312;2023-05-07T12:40:43;17.25;;;8.73;;
45059;SDS011;30799;49.060;9.312;2023-05-07T12:43:15;18.63;;;9.18;;
45059;SDS011;30799;49.060;9.312;2023-05-07T12:45:45;19.15;;;9.40;;
45059;SDS011;30799;49.060;9.312;2023-05-07T12:48:14;16.08;;;9.07;;
45059;SDS011;30799;49.060;9.312;2023-05-07T12:50:41;16.38;;;8.75;;
45059;SDS011;30799;49.060;9.312;2023-05-07T12:53:10;21.60;;;10.38;;
45059;SDS011;30799;49.060;9.312;2023-05-07T12:58:15;13.57;;;8.20;;
45059;SDS011;30799;49.060;9.312;2023-05-07T13:00:43;13.13;;;8.63;;
45059;SDS011;30799;49.060;9.312;2023-05-07T13:03:10;18.38;;;8.93;;
45059;SDS011;30799;49.060;9.312;2023-05-07T13:05:37;14.13;;;8.27;;
45059;SDS011;30799;49.060;9.312;2023-05-07T13:08:04;13.85;;;8.60;;
45059;SDS011;30799;49.060;9.312;2023-05-07T13:10:31;16.75;;;9.57;;
45059;SDS011;30799;49.060;9.312;2023-05-07T13:13:00;15.23;;;8.80;;
45059;SDS011;30799;49.060;9.312;2023-05-07T13:15:26;18.58;;;9.73;;
45059;SDS011;30799;49.060;9.312;2023-05-07T13:17:53;15.27;;;8.10;;
45059;SDS011;30799;49.060;9.312;2023-05-07T13:20:20;16.00;;;8.88;;
45059;SDS011;30799;49.060;9.312;2023-05-07T13:22:47;17.65;;;9.52;;
45059;SDS011;30799;49.060;9.312;2023-05-07T13:25:14;17.85;;;10.02;;
45059;SDS011;30799;49.060;9.312;2023-05-07T13:27:41;19.48;;;10.80;;
45059;SDS011;30799;49.060;9.312;2023-05-07T13:30:08;18.40;;;9.63;;
45059;SDS011;30799;49.060;9.312;2023-05-07T13:32:34;15.65;;;9.98;;
45059;SDS011;30799;49.060;9.312;2023-05-07T13:35:01;15.70;;;9.98;;
45059;SDS011;30799;49.060;9.312;2023-05-07T13:37:28;20.38;;;11.23;;
45059;SDS011;30799;49.060;9.312;2023-05-07T13:39:54;19.05;;;10.65;;
45059;SDS011;30799;49.060;9.312;2023-05-07T13:42:21;17.88;;;11.50;;
45059;SDS011;30799;49.060;9.312;2023-05-07T13:44:48;20.58;;;11.20;;
45059;SDS011;30799;49.060;9.312;2023-05-07T13:47:14;18.13;;;11.35;;
45059;SDS011;30799;49.060;9.312;2023-05-07T13:49:41;21.50;;;11.63;;
45059;SDS011;30799;49.060;9.312;2023-05-07T13:52:08;16.75;;;10.98;;
45059;SDS011;30799;49.060;9.312;2023-05-07T13:54:34;19.88;;;10.82;;
45059;SDS011;30799;49.060;9.312;2023-05-07T13:57:01;19.67;;;10.93;;
45059;SDS011;30799;49.060;9.312;2023-05-07T13:59:27;19.95;;;11.88;;
45059;SDS011;30799;49.060;9.312;2023-05-07T14:01:54;20.70;;;11.55;;
45059;SDS011;30799;49.060;9.312;2023-05-07T14:04:21;20.38;;;11.23;;
45059;SDS011;30799;49.060;9.312;2023-05-07T14:06:47;17.20;;;10.50;;
45059;SDS011;30799;49.060;9.312;2023-05-07T14:09:14;21.50;;;10.90;;
45059;SDS011;30799;49.060;9.312;2023-05-07T14:11:41;18.67;;;10.13;;
45059;SDS011;30799;49.060;9.312;2023-05-07T14:14:08;20.67;;;11.75;;
45059;SDS011;30799;49.060;9.312;2023-05-07T14:16:36;17.75;;;10.55;;
45059;SDS011;30799;49.060;9.312;2023-05-07T14:19:04;22.65;;;11.60;;
45059;SDS011;30799;49.060;9.312;2023-05-07T14:21:30;18.52;;;10.18;;
45059;SDS011;30799;49.060;9.312;2023-05-07T14:23:57;17.92;;;10.98;;
45059;SDS011;30799;49.060;9.312;2023-05-07T14:26:24;18.73;;;10.75;;
45059;SDS011;30799;49.060;9.312;2023-05-07T14:28:53;21.05;;;11.05;;
45059;SDS011;30799;49.060;9.312;2023-05-07T14:31:21;18.00;;;10.73;;
45059;SDS011;30799;49.060;9.312;2023-05-07T14:33:47;14.30;;;9.38;;
45059;SDS011;30799;49.060;9.312;2023-05-07T14:36:19;17.00;;;10.77;;
45059;SDS011;30799;49.060;9.312;2023-05-07T14:38:50;18.63;;;10.32;;
45059;SDS011;30799;49.060;9.312;2023-05-07T14:41:17;10.93;;;5.45;;
45059;SDS011;30799;49.060;9.312;2023-05-07T14:43:44;4.97;;;3.17;;
45059;SDS011;30799;49.060;9.312;2023-05-07T14:46:16;3.60;;;2.42;;
45059;SDS011;30799;49.060;9.312;2023-05-07T14:48:44;2.42;;;2.00;;
45059;SDS011;30799;49.060;9.312;2023-05-07T14:51:12;3.50;;;2.08;;
45059;SDS011;30799;49.060;9.312;2023-05-07T14:53:43;2.53;;;1.63;;
45059;SDS011;30799;49.060;9.312;2023-05-07T14:56:10;3.53;;;1.60;;
45059;SDS011;30799;49.060;9.312;2023-05-07T14:58:37;3.78;;;1.83;;
45059;SDS011;30799;49.060;9.312;2023-05-07T15:01:04;3.08;;;1.50;;
45059;SDS011;30799;49.060;9.312;2023-05-07T15:03:30;4.53;;;1.60;;
45059;SDS011;30799;49.060;9.312;2023-05-07T15:05:57;4.50;;;1.42;;
45059;SDS011;30799;49.060;9.312;2023-05-07T15:08:24;2.90;;;1.50;;
45059;SDS011;30799;49.060;9.312;2023-05-07T15:10:51;4.57;;;1.95;;
45059;SDS011;30799;49.060;9.312;2023-05-07T15:13:17;2.33;;;1.65;;